.
WxDataArchive / Data Records for 2014-04-07
2014-04-06 April 2014 2014-04-08

Data Records for Monday, 07 April 2014

Time	Temp	Chill	HIndex	Humid	Dewpt	 Wind 	HiWind	WindDir	Rain 	Barom
-----	----	-----	------	-----	-----	------	------	-------	-----	-----
00:00	41.8	41.8	41.8	68	32.0	1	3	90	0.00	29.967 
00:05	41.6	41.6	41.6	69	32.2	1	2	90	0.00	29.967 
00:10	41.5	41.5	41.5	70	32.5	0	2	90	0.00	29.967 
00:15	41.3	41.3	41.3	71	32.6	1	2	90	0.00	29.972 
00:20	41.2	41.2	41.2	71	32.5	1	3	90	0.00	29.972 
00:25	41.1	41.1	41.1	71	32.4	0	2	90	0.00	29.972 
00:30	40.8	40.8	40.8	71	32.1	0	1	90	0.00	29.971 
00:35	40.6	40.6	40.6	72	32.3	0	1	90	0.00	29.971 
00:40	40.3	40.3	40.3	73	32.3	0	1	90	0.00	29.971 
00:45	40.2	40.2	40.2	73	32.2	0	2	90	0.00	29.967 
00:50	40.1	40.1	40.1	73	32.2	0	1	90	0.00	29.967 
00:55	39.9	39.9	39.9	74	32.3	0	1	90	0.00	29.967 
01:00	39.6	39.6	39.6	74	32.0	0	2	90	0.00	29.967 
01:05	39.6	39.6	39.6	75	32.3	1	4	90	0.00	29.967 
01:10	39.6	39.6	39.6	75	32.3	0	3	90	0.00	29.967 
01:15	39.5	39.5	39.5	75	32.2	0	2	90	0.00	29.962 
01:20	39.2	39.2	39.2	75	32.0	0	2	90	0.00	29.962 
01:25	39.1	39.1	39.1	75	31.9	0	3	90	0.00	29.962 
01:30	38.9	38.9	38.9	75	31.7	0	2	90	0.00	29.956 
01:35	38.6	38.6	38.6	75	31.4	0	2	90	0.00	29.956 
01:40	38.5	38.5	38.5	75	31.3	0	1	90	0.00	29.956 
01:45	38.3	38.3	38.3	75	31.1	0	0	---	0.00	29.954 
01:50	38.0	38.0	38.0	75	30.8	0	1	90	0.00	29.954 
01:55	37.9	37.9	37.9	75	30.7	0	2	90	0.00	29.954 
02:00	37.8	37.8	37.8	75	30.6	0	3	90	0.00	29.949 
02:05	37.8	37.8	37.8	75	30.6	0	1	90	0.00	29.949 
02:10	37.6	37.6	37.6	74	30.1	0	2	90	0.00	29.949 
02:15	37.6	37.6	37.6	73	29.7	0	1	90	0.00	29.936 
02:20	37.5	37.5	37.5	73	29.6	0	3	90	0.00	29.936 
02:25	37.5	37.5	37.5	73	29.6	1	4	112	0.00	29.936 
02:30	37.5	37.5	37.5	72	29.3	0	3	112	0.00	29.936 
02:35	37.5	37.5	37.5	72	29.3	0	2	112	0.00	29.936 
02:40	37.5	37.5	37.5	73	29.6	0	1	112	0.00	29.936 
02:45	37.3	37.3	37.3	73	29.5	0	2	112	0.00	29.927 
02:50	37.3	37.3	37.3	73	29.5	0	2	112	0.00	29.927 
02:55	37.3	37.3	37.3	73	29.5	0	2	112	0.00	29.927 
03:00	37.2	37.2	37.2	73	29.4	0	2	112	0.00	29.916 
03:05	37.2	37.2	37.2	73	29.4	0	1	112	0.00	29.916 
03:10	37.2	37.2	37.2	73	29.4	0	1	112	0.00	29.916 
03:15	37.0	37.0	37.0	72	28.8	0	2	112	0.00	29.906 
03:20	37.0	37.0	37.0	72	28.8	0	3	112	0.00	29.906 
03:25	37.0	37.0	37.0	71	28.5	1	4	112	0.00	29.906 
03:30	37.0	37.0	37.0	70	28.1	0	2	112	0.00	29.896 
03:35	36.9	36.9	36.9	70	28.0	0	2	112	0.00	29.896 
03:40	36.9	36.9	36.9	69	27.7	0	2	112	0.00	29.896 
03:45	36.8	36.8	36.8	69	27.6	0	1	112	0.00	29.888 
03:50	36.8	36.8	36.8	69	27.6	0	2	112	0.00	29.888 
03:55	36.6	36.6	36.6	69	27.4	0	2	112	0.00	29.888 
04:00	36.5	36.5	36.5	69	27.3	0	3	112	0.00	29.886 
04:05	36.5	36.5	36.5	68	27.0	1	7	112	0.00	29.886 
04:10	36.5	36.5	36.5	68	27.0	0	1	112	0.00	29.886 
04:15	36.5	36.5	36.5	69	27.3	0	2	112	0.00	29.875 
04:20	36.3	36.3	36.3	69	27.1	0	3	112	0.00	29.875 
04:25	36.3	36.3	36.3	68	26.8	0	1	112	0.00	29.875 
04:30	36.2	36.2	36.2	68	26.7	0	1	112	0.00	29.861 
04:35	36.2	36.2	36.2	68	26.7	0	3	112	0.00	29.861 
04:40	36.0	36.0	36.0	68	26.5	0	1	112	0.00	29.861 
04:45	36.0	36.0	36.0	68	26.5	0	2	112	0.00	29.844 
04:50	35.9	35.9	35.9	68	26.4	0	1	112	0.00	29.844 
04:55	35.8	35.8	35.8	69	26.6	0	3	112	0.00	29.844 
05:00	35.6	35.6	35.6	69	26.4	0	4	112	0.00	29.840 
05:05	35.6	35.6	35.6	69	26.4	0	3	112	0.00	29.840 
05:10	35.6	35.6	35.6	69	26.4	0	1	112	0.00	29.840 
05:15	35.6	35.6	35.6	69	26.4	0	2	112	0.00	29.829 
05:20	35.6	35.6	35.6	69	26.4	0	3	112	0.00	29.829 
05:25	35.6	35.6	35.6	69	26.4	0	1	112	0.00	29.829 
05:30	35.6	35.6	35.6	70	26.8	0	3	112	0.00	29.842 
05:35	35.6	35.6	35.6	69	26.4	0	1	112	0.00	29.842 
05:40	35.8	35.8	35.8	70	27.0	0	2	112	0.00	29.842 
05:45	35.9	35.9	35.9	69	26.7	1	5	112	0.00	29.834 
05:50	36.0	36.0	36.0	69	26.8	1	4	112	0.00	29.834 
05:55	36.2	36.2	36.2	69	27.0	2	6	112	0.00	29.834 
06:00	36.3	36.3	36.3	70	27.5	2	4	90	0.00	29.829 
06:05	36.3	36.3	36.3	70	27.5	1	5	112	0.00	29.829 
06:10	36.3	36.3	36.3	70	27.5	2	5	112	0.00	29.829 
06:15	36.3	36.3	36.3	70	27.5	2	5	135	0.00	29.829 
06:20	36.5	36.5	36.5	70	27.7	2	5	112	0.00	29.829 
06:25	36.5	36.5	36.5	71	28.0	2	6	112	0.00	29.829 
06:30	36.5	36.5	36.5	70	27.7	1	5	90	0.00	29.824 
06:35	36.5	36.5	36.5	71	28.0	2	6	112	0.00	29.824 
06:40	36.3	36.3	36.3	71	27.8	2	4	112	0.00	29.824 
06:45	36.3	36.3	36.3	71	27.8	1	5	112	0.00	29.816 
06:50	36.3	36.3	36.3	71	27.8	1	5	112	0.00	29.816 
06:55	36.5	36.5	36.5	71	28.0	0	2	112	0.00	29.816 
07:00	36.5	36.5	36.5	72	28.3	0	1	112	0.00	29.813 
07:05	36.5	36.5	36.5	72	28.3	0	3	112	0.00	29.813 
07:10	36.5	36.5	36.5	72	28.3	1	4	112	0.00	29.813 
07:15	36.6	36.6	36.6	72	28.4	1	4	90	0.00	29.826 
07:20	36.6	36.6	36.6	72	28.4	2	6	90	0.00	29.826 
07:25	36.6	36.6	36.6	72	28.4	1	6	90	0.00	29.826 
07:30	36.6	36.6	36.6	72	28.4	1	4	90	0.00	29.827 
07:35	36.6	36.6	36.6	72	28.4	1	4	112	0.00	29.827 
07:40	36.6	36.6	36.6	73	28.8	1	5	112	0.00	29.827 
07:45	36.5	36.5	36.5	73	28.7	1	6	112	0.00	29.820 
07:50	36.5	36.5	36.5	73	28.7	1	5	112	0.00	29.820 
07:55	36.3	36.3	36.3	73	28.5	1	4	112	0.00	29.820 
08:00	36.3	36.3	36.3	74	28.8	1	4	112	0.00	29.815 
08:05	36.3	36.3	36.3	74	28.8	1	4	90	0.00	29.815 
08:10	36.3	36.3	36.3	74	28.8	1	3	90	0.00	29.815 
08:15	36.3	36.3	36.3	74	28.8	0	3	90	0.00	29.826 
08:20	36.3	36.3	36.3	74	28.8	0	3	90	0.00	29.826 
08:25	36.5	36.5	36.5	74	29.0	1	4	158	0.00	29.826 
08:30	36.8	36.8	36.8	73	29.0	1	3	135	0.00	29.834 
08:35	36.9	36.9	36.9	73	29.1	0	2	135	0.00	29.834 
08:40	37.0	37.0	37.0	73	29.2	0	3	135	0.00	29.834 
08:45	37.2	37.2	37.2	72	29.0	0	2	45	0.00	29.825 
08:50	37.5	37.5	37.5	72	29.3	1	3	22	0.00	29.825 
08:55	37.6	37.6	37.6	72	29.4	0	1	135	0.00	29.825 
09:00	37.8	37.8	37.8	71	29.3	0	4	135	0.00	29.820 
09:05	37.9	37.9	37.9	70	29.0	0	3	68	0.00	29.820 
09:10	38.3	38.3	38.3	70	29.4	0	2	68	0.00	29.820 
09:15	38.6	38.6	38.6	69	29.3	1	3	68	0.00	29.816 
09:20	38.9	38.9	38.9	68	29.3	1	3	90	0.00	29.816 
09:25	39.3	39.3	39.3	67	29.3	1	4	112	0.00	29.816 
09:30	39.6	39.6	39.6	67	29.6	0	4	112	0.00	29.806 
09:35	40.1	40.1	40.1	65	29.3	1	4	112	0.00	29.806 
09:40	40.5	40.5	40.5	64	29.3	2	5	112	0.00	29.806 
09:45	41.1	41.1	41.1	64	29.9	1	3	68	0.00	29.795 
09:50	41.5	41.5	41.5	64	30.2	1	4	90	0.00	29.795 
09:55	42.2	42.2	42.2	64	30.9	1	5	90	0.00	29.795 
10:00	42.9	42.9	42.9	61	30.4	1	5	112	0.00	29.783 
10:05	43.2	43.2	43.2	59	29.9	1	4	22	0.00	29.783 
10:10	43.8	43.8	43.8	59	30.4	1	5	90	0.00	29.783 
10:15	44.1	44.1	44.1	57	29.9	1	5	112	0.00	29.778 
10:20	44.2	44.2	44.2	57	29.9	2	7	112	0.00	29.778 
10:25	44.3	44.3	44.3	58	30.5	3	7	112	0.00	29.778 
10:30	44.5	42.5	44.5	57	30.2	4	10	112	0.00	29.767 
10:35	44.9	44.9	44.9	56	30.2	2	9	112	0.00	29.767 
10:40	45.7	45.7	45.7	56	30.9	2	9	90	0.00	29.767 
10:45	46.4	46.4	46.4	55	31.1	2	5	112	0.00	29.754 
10:50	46.7	46.7	46.7	55	31.4	1	7	112	0.00	29.754 
10:55	46.7	45.1	46.7	53	30.5	4	9	112	0.00	29.754 
11:00	46.8	46.8	46.8	53	30.6	1	4	112	0.00	29.733 
11:05	46.5	46.5	46.5	53	30.3	2	7	22	0.00	29.733 
11:10	46.5	46.5	46.5	54	30.8	1	6	68	0.00	29.733 
11:15	46.5	46.5	46.5	53	30.3	2	7	90	0.00	29.718 
11:20	46.8	46.8	46.8	54	31.0	2	7	112	0.00	29.718 
11:25	47.3	47.3	47.3	53	31.0	3	8	90	0.00	29.718 
11:30	47.4	45.9	47.4	52	30.7	4	10	112	0.00	29.717 
11:35	47.7	46.2	47.7	53	31.4	4	10	112	0.00	29.717 
11:40	47.6	44.8	47.6	53	31.3	6	13	90	0.00	29.717 
11:45	47.4	45.9	47.4	55	32.1	4	11	90	0.00	29.712 
11:50	47.0	43.6	47.0	54	31.2	7	12	112	0.00	29.712 
11:55	46.7	43.7	46.7	56	31.8	6	13	112	0.00	29.712 
12:00	46.7	46.7	46.7	56	31.8	3	10	112	0.00	29.707 
12:05	46.8	44.5	46.8	57	32.4	5	11	112	0.00	29.707 
12:10	47.0	47.0	47.0	57	32.6	2	8	112	0.00	29.707 
12:15	47.1	47.1	47.1	57	32.7	3	9	112	0.00	29.698 
12:20	47.4	47.4	47.4	58	33.4	3	8	112	0.00	29.698 
12:25	48.0	48.0	48.0	56	33.1	3	10	112	0.00	29.698 
12:30	48.5	46.5	48.5	54	32.6	5	11	112	0.00	29.688 
12:35	48.8	47.5	48.8	55	33.4	4	11	112	0.00	29.688 
12:40	49.2	49.2	49.2	55	33.7	3	11	90	0.00	29.688 
12:45	49.5	47.6	49.5	55	34.0	5	10	90	0.00	29.670 
12:50	49.9	48.1	49.9	54	33.9	5	12	112	0.00	29.670 
12:55	50.1	50.1	50.1	53	33.6	6	13	112	0.00	29.670 
13:00	50.2	50.2	50.2	53	33.7	5	12	90	0.00	29.653 
13:05	50.5	50.5	50.5	53	34.0	4	9	112	0.00	29.653 
13:10	50.5	50.5	50.5	53	34.0	4	10	90	0.00	29.653 
13:15	50.5	50.5	50.5	53	34.0	5	10	112	0.00	29.644 
13:20	50.5	50.5	50.5	54	34.5	5	11	90	0.00	29.644 
13:25	50.5	50.5	50.5	54	34.5	3	7	112	0.00	29.644 
13:30	50.5	50.5	50.5	54	34.5	2	7	90	0.00	29.623 
13:35	50.5	50.5	50.5	54	34.5	4	11	112	0.00	29.623 
13:40	50.7	50.7	50.7	55	35.1	2	7	112	0.00	29.623 
13:45	50.7	50.7	50.7	54	34.7	3	10	112	0.00	29.603 
13:50	50.7	50.7	50.7	55	35.1	2	6	112	0.00	29.603 
13:55	50.7	50.7	50.7	55	35.1	3	11	112	0.00	29.603 
14:00	50.7	50.7	50.7	55	35.1	3	11	90	0.00	29.577 
14:05	50.8	50.8	50.8	55	35.2	2	5	112	0.00	29.577 
14:10	50.8	50.8	50.8	55	35.2	1	5	22	0.00	29.577 
14:15	50.8	50.8	50.8	54	34.8	4	15	112	0.00	29.576 
14:20	50.7	50.7	50.7	54	34.7	5	15	112	0.00	29.576 
14:25	50.4	50.4	50.4	55	34.8	4	10	112	0.00	29.576 
14:30	50.4	50.4	50.4	56	35.3	3	7	112	0.00	29.575 
14:35	50.4	50.4	50.4	57	35.7	2	7	112	0.00	29.575 
14:40	50.4	50.4	50.4	57	35.7	3	10	112	0.00	29.575 
14:45	50.4	50.4	50.4	58	36.2	2	7	112	0.00	29.562 
14:50	50.2	50.2	50.2	59	36.4	2	7	112	0.00	29.562 
14:55	50.1	50.1	50.1	60	36.8	2	9	0	0.00	29.562 
15:00	49.9	49.9	49.9	62	37.4	1	3	112	0.00	29.562 
15:05	49.8	49.8	49.8	65	38.5	0	3	112	0.00	29.562 
15:10	49.4	49.4	49.4	66	38.5	1	5	45	0.00	29.562 
15:15	49.1	49.1	49.1	68	39.0	0	3	45	0.01	29.576 
15:20	48.8	48.8	48.8	71	39.8	1	4	112	0.00	29.576 
15:25	48.5	48.5	48.5	72	39.9	0	1	112	0.01	29.576 
15:30	48.2	48.2	48.2	74	40.3	0	1	112	0.01	29.591 
15:35	47.7	47.7	47.7	76	40.5	0	2	112	0.01	29.591 
15:40	47.6	47.6	47.6	78	41.1	0	0	---	0.00	29.591 
15:45	47.3	47.3	47.3	79	41.1	0	0	---	0.01	29.596 
15:50	47.1	47.1	47.1	80	41.3	0	0	---	0.01	29.596 
15:55	47.0	47.0	47.0	81	41.5	0	0	---	0.02	29.596 
16:00	46.7	46.7	46.7	83	41.8	0	0	---	0.00	29.585 
16:05	46.5	46.5	46.5	83	41.6	0	1	112	0.01	29.585 
16:10	46.4	46.4	46.4	84	41.8	0	1	112	0.01	29.585 
16:15	46.1	46.1	46.1	85	41.8	0	4	68	0.02	29.565 
16:20	46.0	46.0	46.0	85	41.7	0	2	90	0.00	29.565 
16:25	45.8	45.8	45.8	86	41.9	0	3	45	0.01	29.565 
16:30	45.7	45.7	45.7	86	41.8	1	2	45	0.01	29.532 
16:35	45.4	45.4	45.4	86	41.5	1	2	0	0.00	29.532 
16:40	45.1	45.1	45.1	86	41.2	1	5	315	0.00	29.532 
16:45	44.9	44.9	44.9	87	41.3	1	3	22	0.01	29.538 
16:50	44.9	44.9	44.9	87	41.3	1	4	112	0.00	29.538 
16:55	44.8	44.8	44.8	87	41.2	1	3	45	0.01	29.538 
17:00	44.8	44.8	44.8	88	41.5	1	4	68	0.01	29.546 
17:05	44.5	44.5	44.5	87	40.9	1	4	22	0.00	29.546 
17:10	44.2	44.2	44.2	87	40.6	1	6	90	0.01	29.546 
17:15	44.1	44.1	44.1	87	40.5	1	7	68	0.01	29.536 
17:20	43.9	43.9	43.9	87	40.3	1	5	0	0.00	29.536 
17:25	43.8	43.8	43.8	88	40.5	1	6	22	0.00	29.536 
17:30	43.8	43.8	43.8	88	40.5	1	5	338	0.01	29.522 
17:35	43.6	43.6	43.6	88	40.3	1	4	0	0.00	29.522 
17:40	43.5	43.5	43.5	88	40.2	2	6	338	0.00	29.522 
17:45	43.3	43.3	43.3	88	40.0	1	4	338	0.00	29.536 
17:50	43.3	43.3	43.3	89	40.3	1	4	338	0.00	29.536 
17:55	43.2	43.2	43.2	89	40.2	2	5	338	0.00	29.536 
18:00	43.2	43.2	43.2	89	40.2	2	5	338	0.00	29.535 
18:05	43.2	43.2	43.2	89	40.2	1	4	338	0.01	29.535 
18:10	43.2	43.2	43.2	90	40.5	2	6	338	0.01	29.535 
18:15	43.2	43.2	43.2	90	40.5	2	5	338	0.00	29.523 
18:20	43.2	43.2	43.2	90	40.5	2	7	22	0.01	29.523 
18:25	43.2	43.2	43.2	91	40.8	1	4	338	0.01	29.523 
18:30	43.1	43.1	43.1	91	40.7	2	7	338	0.01	29.509 
18:35	43.1	43.1	43.1	91	40.7	2	11	338	0.01	29.509 
18:40	42.9	42.9	42.9	91	40.5	2	11	315	0.01	29.509 
18:45	42.9	42.9	42.9	91	40.5	2	6	0	0.01	29.499 
18:50	42.8	42.8	42.8	91	40.4	2	12	338	0.01	29.499 
18:55	42.8	42.8	42.8	92	40.6	2	7	338	0.00	29.499 
19:00	42.8	42.8	42.8	92	40.6	2	6	338	0.01	29.493 
19:05	42.8	42.8	42.8	92	40.6	2	6	338	0.00	29.493 
19:10	42.6	42.6	42.6	92	40.4	2	7	338	0.01	29.493 
19:15	42.6	42.6	42.6	92	40.4	3	7	338	0.00	29.489 
19:20	42.6	42.6	42.6	92	40.4	3	9	338	0.01	29.489 
19:25	42.6	42.6	42.6	92	40.4	3	8	0	0.00	29.489 
19:30	42.6	42.6	42.6	92	40.4	2	6	338	0.00	29.486 
19:35	42.6	42.6	42.6	92	40.4	2	7	338	0.00	29.486 
19:40	42.6	42.6	42.6	92	40.4	3	7	338	0.00	29.486 
19:45	42.6	42.6	42.6	92	40.4	3	6	338	0.00	29.495 
19:50	42.6	42.6	42.6	92	40.4	2	6	338	0.00	29.495 
19:55	42.5	42.5	42.5	91	40.1	2	6	338	0.01	29.495 
20:00	42.5	42.5	42.5	91	40.1	2	5	315	0.01	29.506 
20:05	42.5	42.5	42.5	91	40.1	2	7	338	0.00	29.506 
20:10	42.5	42.5	42.5	91	40.1	2	6	338	0.01	29.506 
20:15	42.5	42.5	42.5	92	40.3	2	5	338	0.02	29.517 
20:20	42.3	42.3	42.3	92	40.1	2	6	338	0.01	29.517 
20:25	42.3	42.3	42.3	92	40.1	3	9	338	0.02	29.517 
20:30	42.3	42.3	42.3	92	40.1	2	5	315	0.01	29.505 
20:35	42.2	42.2	42.2	92	40.0	3	7	338	0.02	29.505 
20:40	42.2	42.2	42.2	92	40.0	2	10	315	0.03	29.505 
20:45	42.1	42.1	42.1	92	39.9	3	6	338	0.02	29.501 
20:50	41.9	41.9	41.9	92	39.7	3	9	338	0.01	29.501 
20:55	41.8	41.8	41.8	92	39.6	3	10	338	0.01	29.501 
21:00	41.8	41.8	41.8	92	39.6	2	6	338	0.01	29.505 
21:05	41.8	41.8	41.8	92	39.6	3	10	338	0.00	29.505 
21:10	41.6	39.2	41.6	92	39.5	4	10	338	0.00	29.505 
21:15	41.6	41.6	41.6	92	39.5	3	7	338	0.00	29.501 
21:20	41.6	41.6	41.6	92	39.5	3	6	338	0.01	29.501 
21:25	41.6	41.6	41.6	92	39.5	3	7	338	0.00	29.501 
21:30	41.6	41.6	41.6	92	39.5	3	10	338	0.01	29.502 
21:35	41.6	41.6	41.6	92	39.5	3	7	0	0.00	29.502 
21:40	41.6	41.6	41.6	92	39.5	3	10	338	0.00	29.502 
21:45	41.6	41.6	41.6	92	39.5	3	7	338	0.01	29.499 
21:50	41.6	41.6	41.6	92	39.5	3	5	338	0.00	29.499 
21:55	41.6	41.6	41.6	92	39.5	3	9	315	0.01	29.499 
22:00	41.6	41.6	41.6	92	39.5	2	6	338	0.00	29.513 
22:05	41.8	41.8	41.8	92	39.6	2	8	338	0.00	29.513 
22:10	41.8	41.8	41.8	92	39.6	2	5	338	0.00	29.513 
22:15	41.8	41.8	41.8	92	39.6	2	5	338	0.00	29.510 
22:20	41.8	41.8	41.8	92	39.6	1	5	315	0.00	29.510 
22:25	41.8	41.8	41.8	92	39.6	1	5	315	0.00	29.510 
22:30	41.8	41.8	41.8	93	39.9	2	5	338	0.01	29.513 
22:35	41.8	41.8	41.8	93	39.9	2	5	338	0.00	29.513 
22:40	41.8	41.8	41.8	93	39.9	2	5	338	0.00	29.513 
22:45	41.8	41.8	41.8	93	39.9	1	5	338	0.00	29.511 
22:50	41.9	41.9	41.9	93	40.0	2	6	338	0.00	29.511 
22:55	41.9	41.9	41.9	93	40.0	2	9	338	0.01	29.511 
23:00	41.9	41.9	41.9	93	40.0	2	5	315	0.00	29.510 
23:05	42.1	42.1	42.1	93	40.2	2	4	315	0.00	29.510 
23:10	42.1	42.1	42.1	93	40.2	2	5	315	0.00	29.510 
23:15	42.1	42.1	42.1	93	40.2	2	5	315	0.00	29.511 
23:20	42.1	42.1	42.1	93	40.2	1	5	270	0.01	29.511 
23:25	42.1	42.1	42.1	93	40.2	1	5	270	0.00	29.511 
23:30	42.1	42.1	42.1	93	40.2	2	4	315	0.00	29.512 
23:35	42.1	42.1	42.1	93	40.2	1	3	292	0.01	29.512 
23:40	41.9	41.9	41.9	93	40.0	1	4	270	0.00	29.512 
23:45	41.9	41.9	41.9	93	40.0	1	4	315	0.00	29.513 
23:50	41.9	41.9	41.9	93	40.0	1	3	315	0.00	29.513 
23:55	41.9	41.9	41.9	93	40.0	1	4	292	0.01	29.513 

CoCoRaHS
IN-AL-39
A2 Web Hosting
Creative Commons License
GoDaddy
search engine by freefind advanced

loaded 2018-11-13 23:28:09 • last modified 2010-11-18 10:43:29
Privacy PolicyDisclaimer
• wx.awcolley.com is powered by PmWiki v.2002016 •
• all content (unless otherwise noted) © 2018 A W Colley